General Aviation Weather

Text Reports

Enter one or more of the following location identifiers separated by a space:

Zip Code, Four-Character ICAO or Three-Character IATA airport codes.

METAR - Aviation Routine Weather Report
KVTA - Newark Heath, Ohio
Updated at 2:20 PM GMT on September 01, 2014 (10:20 AM EDT):
SPECI KVTA 011420Z AUTO 20006KT 9SM OVC012 24/22 A3002 RMK AO2 T02390217
TAF - Terminal Area Forecast
KVTA - Newark Heath, Ohio
Updated at 2:20 PM GMT on September 01, 2014 (10:20 AM EDT):
No TAF is currently available for this location.
Decoded:
No decoded TAF is available.
PIREP - Pilot Weather Report
KVTA - Newark Heath, Ohio
Updated at 2:20 PM GMT on September 01, 2014 (10:20 AM EDT):
No PIREP is currently available for this location.
AIRMET - Airmens Meteorological Information
KVTA - Newark Heath, Ohio
Updated at 2:20 PM GMT on September 01, 2014 (10:20 AM EDT):
No AIRMET is currently available for this location.
SIGMET - Significant Meteorological Information
KVTA - Newark Heath, Ohio
Updated at 2:20 PM GMT on September 01, 2014 (10:20 AM EDT):
No SIGMET is currently available for this location.
NOTAM - Notice to Airmen
KVTA - Newark Heath, Ohio
Updated at 2:20 PM GMT on September 01, 2014 (10:20 AM EDT):
No NOTAM is currently available for this location.
Forecast Area
KVTA - Newark Heath, Ohio
Updated at 2:20 PM GMT on September 01, 2014 (10:20 AM EDT):
No NOTAM is currently available for this location.
Aviation Weather Maps